createdAt,value
2022-08-16T00:02:30.536Z,69.21
2022-08-16T00:04:59.656Z,69.06
2022-08-16T00:07:26.757Z,68.72
2022-08-16T00:09:56.189Z,69.00
2022-08-16T00:12:24.097Z,69.24
2022-08-16T00:14:50.904Z,69.37
2022-08-16T00:17:23.429Z,69.57
2022-08-16T00:19:53.708Z,69.62
2022-08-16T00:22:25.103Z,69.97
2022-08-16T00:24:54.413Z,69.69
2022-08-16T00:27:21.876Z,69.43
2022-08-16T00:29:48.500Z,69.50
2022-08-16T00:32:32.692Z,69.96
2022-08-16T00:35:00.454Z,70.09
2022-08-16T00:37:58.895Z,70.30
2022-08-16T00:40:34.881Z,70.17
2022-08-16T00:43:12.051Z,70.32
2022-08-16T00:46:22.422Z,70.34
2022-08-16T00:48:56.914Z,70.60
2022-08-16T00:51:25.077Z,70.53
2022-08-16T00:53:58.197Z,70.35
2022-08-16T00:56:58.573Z,70.90
2022-08-16T00:59:20.979Z,71.03
2022-08-16T01:01:51.369Z,71.09
2022-08-16T01:04:29.013Z,70.94
2022-08-16T01:07:02.036Z,71.34
2022-08-16T01:09:33.204Z,71.16
2022-08-16T01:12:00.950Z,71.25
2022-08-16T01:14:34.147Z,71.47
2022-08-16T01:17:03.160Z,71.55
2022-08-16T01:19:34.741Z,71.64
2022-08-16T01:22:49.560Z,71.52
2022-08-16T01:25:02.956Z,71.60
2022-08-16T01:27:35.212Z,71.48
2022-08-16T01:30:20.547Z,71.37
2022-08-16T01:33:01.370Z,71.77
2022-08-16T01:35:40.570Z,72.07
2022-08-16T01:38:34.430Z,72.10
2022-08-16T01:41:02.650Z,72.33
2022-08-16T01:43:31.539Z,72.27
2022-08-16T01:46:37.366Z,72.37
2022-08-16T01:48:48.374Z,72.26
2022-08-16T01:51:18.043Z,71.96
2022-08-16T01:53:54.608Z,72.28
2022-08-16T01:56:25.200Z,72.19
2022-08-16T01:58:55.199Z,72.41
2022-08-16T02:01:22.953Z,72.34
2022-08-16T02:03:52.440Z,72.21
2022-08-16T02:06:33.958Z,72.59
2022-08-16T02:09:05.295Z,72.30
2022-08-16T02:11:47.682Z,72.68
2022-08-16T02:14:18.414Z,72.58
2022-08-16T02:16:48.264Z,72.76
2022-08-16T02:19:16.196Z,72.33
2022-08-16T02:22:08.375Z,72.58
2022-08-16T02:24:34.327Z,72.81
2022-08-16T02:27:08.528Z,72.72
2022-08-16T02:29:35.011Z,72.76
2022-08-16T02:32:50.421Z,72.62
2022-08-16T02:34:50.298Z,72.53
2022-08-16T02:37:20.951Z,72.77
2022-08-16T02:39:53.733Z,72.69
2022-08-16T02:42:21.041Z,72.82
2022-08-16T02:44:47.465Z,73.10
2022-08-16T02:47:25.427Z,73.49
2022-08-16T02:49:59.320Z,73.93
2022-08-16T02:52:39.254Z,74.10
2022-08-16T02:55:11.722Z,73.87
2022-08-16T02:57:53.713Z,73.75
2022-08-16T03:00:32.110Z,73.85
2022-08-16T03:03:02.520Z,73.70
2022-08-16T03:05:31.575Z,73.75
2022-08-16T03:07:58.604Z,74.13
2022-08-16T03:10:33.530Z,74.00
2022-08-16T03:13:00.602Z,73.80
2022-08-16T03:15:27.856Z,73.76
2022-08-16T03:17:55.024Z,73.66
2022-08-16T03:20:32.352Z,73.04
2022-08-16T03:23:01.841Z,73.99
2022-08-16T03:25:41.104Z,74.33
2022-08-16T03:28:11.553Z,74.38
2022-08-16T03:30:38.255Z,74.46
2022-08-16T03:33:05.425Z,73.98
2022-08-16T03:35:36.159Z,73.90
2022-08-16T03:38:34.445Z,74.06
2022-08-16T03:40:53.877Z,74.11
2022-08-16T03:43:21.683Z,74.04
2022-08-16T03:45:48.897Z,73.84
2022-08-16T03:48:19.741Z,73.84
2022-08-16T03:51:00.067Z,73.88
2022-08-16T03:53:37.598Z,73.94
2022-08-16T03:56:07.318Z,73.84
2022-08-16T03:58:34.913Z,74.10
2022-08-16T04:01:04.724Z,74.23
2022-08-16T04:03:32.248Z,74.10
2022-08-16T04:05:59.493Z,73.88
2022-08-16T04:08:31.348Z,73.99
2022-08-16T04:11:01.526Z,74.33
2022-08-16T04:14:01.681Z,74.98
2022-08-16T04:16:27.385Z,74.96
2022-08-16T04:19:02.423Z,74.93
2022-08-16T04:21:35.860Z,75.38
2022-08-16T04:24:12.842Z,75.18
2022-08-16T04:26:46.246Z,75.30
2022-08-16T04:29:17.200Z,75.01
2022-08-16T04:31:56.242Z,74.95
2022-08-16T04:34:26.695Z,75.25
2022-08-16T04:36:53.842Z,74.88
2022-08-16T04:39:23.903Z,75.13
2022-08-16T04:41:56.668Z,74.84
2022-08-16T04:44:32.429Z,75.16
2022-08-16T04:47:21.102Z,75.09
2022-08-16T04:49:50.575Z,75.97
2022-08-16T04:52:32.759Z,76.48
2022-08-16T04:55:00.928Z,77.37
2022-08-16T04:57:30.380Z,77.52
2022-08-16T04:59:57.129Z,77.55
2022-08-16T05:02:42.252Z,77.09
2022-08-16T05:05:17.031Z,76.40
2022-08-16T05:07:58.560Z,76.72
2022-08-16T05:10:29.611Z,77.38
2022-08-16T05:12:57.550Z,77.95
2022-08-16T05:15:24.565Z,78.37
2022-08-16T05:17:58.845Z,78.50
2022-08-16T05:20:45.038Z,78.71
2022-08-16T05:23:15.143Z,78.76
2022-08-16T05:25:48.429Z,78.35
2022-08-16T05:28:15.292Z,78.24
2022-08-16T05:30:41.839Z,77.66
2022-08-16T05:33:16.493Z,77.38
2022-08-16T05:35:43.812Z,76.83
2022-08-16T05:38:32.464Z,76.29
2022-08-16T05:41:00.878Z,76.09
2022-08-16T05:43:32.152Z,75.63
2022-08-16T05:46:28.711Z,75.70
2022-08-16T05:49:03.741Z,72.24
2022-08-16T05:51:37.609Z,69.41
2022-08-16T05:54:07.663Z,69.35
2022-08-16T05:56:37.388Z,68.95
2022-08-16T05:59:06.427Z,69.32
2022-08-16T06:01:38.135Z,70.75
2022-08-16T06:04:13.587Z,71.64
2022-08-16T06:06:56.224Z,71.17
2022-08-16T06:09:23.921Z,70.56
2022-08-16T06:11:50.951Z,70.42
2022-08-16T06:14:18.145Z,67.76
2022-08-16T06:16:50.849Z,68.02
2022-08-16T06:19:17.744Z,66.67
2022-08-16T06:21:46.109Z,65.72
2022-08-16T06:24:54.541Z,64.82
2022-08-16T06:27:08.424Z,63.01
2022-08-16T06:29:34.856Z,59.30
2022-08-16T06:32:01.577Z,54.60
2022-08-16T06:34:53.242Z,49.18
2022-08-16T06:37:17.421Z,44.23
2022-08-16T06:39:49.176Z,41.53
2022-08-16T06:42:18.105Z,40.78
2022-08-16T06:44:45.771Z,41.09
2022-08-16T06:47:16.787Z,43.60
2022-08-16T06:49:44.024Z,48.59
2022-08-16T06:52:58.071Z,52.67
2022-08-16T06:55:13.009Z,55.70
2022-08-16T06:57:40.742Z,57.65
2022-08-16T07:00:24.779Z,59.00
2022-08-16T07:02:53.924Z,60.04
2022-08-16T07:05:26.997Z,60.05
2022-08-16T07:08:06.119Z,60.64
2022-08-16T07:10:32.570Z,61.29
2022-08-16T07:13:04.087Z,61.75
2022-08-16T07:15:38.124Z,61.79
2022-08-16T07:18:24.467Z,61.38
2022-08-16T07:20:53.883Z,61.87
2022-08-16T07:23:37.350Z,61.96
2022-08-16T07:26:09.840Z,61.34
2022-08-16T07:28:37.552Z,61.59
2022-08-16T07:31:05.034Z,61.07
2022-08-16T07:33:53.640Z,51.63
2022-08-16T07:36:22.608Z,45.72
2022-08-16T07:38:49.936Z,42.88
2022-08-16T07:41:16.897Z,41.42
2022-08-16T07:43:43.865Z,40.22
2022-08-16T07:46:38.993Z,38.67
2022-08-16T07:49:02.630Z,37.73
2022-08-16T07:51:34.729Z,36.90
2022-08-16T07:54:09.532Z,35.56
2022-08-16T07:56:37.660Z,35.95
2022-08-16T07:59:05.727Z,36.50
2022-08-16T08:01:33.457Z,37.13
2022-08-16T08:04:01.269Z,35.49
2022-08-16T08:06:32.217Z,36.40
2022-08-16T08:09:00.188Z,36.68
2022-08-16T08:11:29.569Z,37.25
2022-08-16T08:14:03.508Z,36.66
2022-08-16T08:16:32.733Z,35.25
2022-08-16T08:19:02.664Z,35.29
2022-08-16T08:21:58.385Z,34.34
2022-08-16T08:24:16.899Z,34.88
2022-08-16T08:26:43.545Z,33.90
2022-08-16T08:29:12.018Z,35.31
2022-08-16T08:31:42.461Z,33.80
2022-08-16T08:34:08.985Z,33.14
2022-08-16T08:36:39.398Z,34.16
2022-08-16T08:39:13.223Z,32.93
2022-08-16T08:41:41.460Z,34.10
2022-08-16T08:44:28.866Z,33.76
2022-08-16T08:47:00.014Z,34.57
2022-08-16T08:49:46.501Z,32.50
2022-08-16T08:52:35.194Z,34.37
2022-08-16T08:55:10.362Z,34.43
2022-08-16T08:57:44.774Z,34.50
2022-08-16T09:00:14.310Z,33.69
2022-08-16T09:02:51.920Z,33.54
2022-08-16T09:05:21.051Z,34.69
2022-08-16T09:08:00.493Z,34.30
2022-08-16T09:10:29.835Z,33.87
2022-08-16T09:12:57.167Z,35.42
2022-08-16T09:15:24.123Z,35.31
2022-08-16T09:17:54.700Z,34.50
2022-08-16T09:20:23.696Z,35.79
2022-08-16T09:22:52.576Z,36.24
2022-08-16T09:25:33.526Z,37.48
2022-08-16T09:28:02.399Z,34.77
2022-08-16T09:30:43.309Z,34.67
2022-08-16T09:33:12.441Z,35.23
2022-08-16T09:35:42.667Z,37.28
2022-08-16T09:38:12.182Z,35.48
2022-08-16T09:40:44.108Z,36.26
2022-08-16T09:43:37.788Z,33.46
2022-08-16T09:46:03.245Z,35.06
2022-08-16T09:48:52.973Z,34.86
2022-08-16T09:51:26.383Z,33.37
2022-08-16T09:54:03.730Z,35.58
2022-08-16T09:56:33.116Z,34.04
2022-08-16T09:59:03.959Z,33.96
2022-08-16T10:01:36.385Z,33.86
2022-08-16T10:04:04.179Z,33.61
2022-08-16T10:06:33.454Z,34.42
2022-08-16T10:09:06.319Z,35.83
2022-08-16T10:11:53.297Z,35.20
2022-08-16T10:14:24.481Z,34.79
2022-08-16T10:16:59.929Z,33.78
2022-08-16T10:19:29.164Z,33.62
2022-08-16T10:21:59.075Z,33.39
2022-08-16T10:24:28.302Z,35.87
2022-08-16T10:27:17.978Z,34.31
2022-08-16T10:30:00.406Z,34.54
2022-08-16T10:32:30.583Z,33.97
2022-08-16T10:35:00.234Z,34.97
2022-08-16T10:37:41.893Z,34.23
2022-08-16T10:40:28.745Z,34.25
2022-08-16T10:42:59.955Z,34.95
2022-08-16T10:45:36.395Z,36.10
2022-08-16T10:48:04.059Z,36.92
2022-08-16T10:50:32.724Z,38.28
2022-08-16T10:53:00.162Z,39.37
2022-08-16T10:55:40.627Z,39.40
2022-08-16T10:58:13.509Z,39.54
2022-08-16T11:00:43.850Z,38.09
2022-08-16T11:06:00.303Z,38.00
2022-08-16T11:08:31.297Z,39.49
2022-08-16T11:11:05.397Z,39.98
2022-08-16T11:16:26.503Z,40.06
2022-08-16T11:19:06.427Z,39.86
2022-08-16T11:24:39.431Z,41.23
2022-08-16T11:27:32.804Z,40.78
2022-08-16T11:29:56.747Z,40.28
2022-08-16T11:32:32.479Z,40.85
2022-08-16T11:35:13.750Z,40.27
2022-08-16T11:43:32.107Z,40.43
2022-08-16T11:46:43.740Z,39.97
2022-08-16T11:48:51.697Z,40.40
2022-08-16T11:51:20.574Z,41.28
2022-08-16T11:53:50.464Z,40.16
2022-08-16T11:56:37.577Z,39.66
2022-08-16T11:59:08.650Z,40.04
2022-08-16T12:01:44.615Z,38.19
2022-08-16T12:04:23.267Z,39.34
2022-08-16T12:06:53.657Z,37.63
2022-08-16T12:09:21.927Z,36.53
2022-08-16T12:11:52.691Z,36.72
2022-08-16T12:14:22.785Z,37.65
2022-08-16T12:16:55.816Z,36.20
2022-08-16T12:19:33.688Z,38.36
2022-08-16T12:22:00.802Z,37.56
2022-08-16T12:24:32.484Z,37.06
2022-08-16T12:27:00.003Z,37.56
2022-08-16T12:29:29.425Z,36.51
2022-08-16T12:32:00.636Z,37.37
2022-08-16T12:34:29.574Z,37.13
2022-08-16T12:36:56.448Z,39.40
2022-08-16T12:39:23.801Z,38.71
2022-08-16T12:41:56.355Z,39.14
2022-08-16T12:44:26.817Z,38.57
2022-08-16T12:47:16.383Z,39.78
2022-08-16T12:49:44.480Z,39.67
2022-08-16T12:52:32.755Z,39.56
2022-08-16T12:54:58.681Z,40.05
2022-08-16T12:57:25.536Z,40.02
2022-08-16T13:00:12.964Z,40.37
2022-08-16T13:02:54.015Z,41.11
2022-08-16T13:05:20.429Z,40.89
2022-08-16T13:07:51.763Z,41.43
2022-08-16T13:10:38.024Z,40.94
2022-08-16T13:13:09.249Z,41.08
2022-08-16T13:15:55.699Z,39.97
2022-08-16T13:18:33.614Z,40.39
2022-08-16T13:21:05.876Z,40.82
2022-08-16T13:23:33.521Z,39.46
2022-08-16T13:26:02.427Z,41.07
2022-08-16T13:28:28.973Z,40.00
2022-08-16T13:30:57.269Z,40.08
2022-08-16T13:33:30.778Z,39.14
2022-08-16T13:36:01.159Z,39.09
2022-08-16T13:38:32.689Z,38.39
2022-08-16T13:41:08.241Z,38.26
2022-08-16T13:43:36.561Z,38.79
2022-08-16T13:46:04.733Z,38.28
2022-08-16T13:48:37.037Z,39.14
2022-08-16T13:51:16.998Z,37.64
2022-08-16T13:53:59.791Z,39.68
2022-08-16T13:56:37.591Z,38.41
2022-08-16T13:59:20.177Z,37.06
2022-08-16T14:01:54.616Z,35.40
2022-08-16T14:04:26.408Z,35.41
2022-08-16T14:06:53.868Z,34.52
2022-08-16T14:09:21.303Z,35.67
2022-08-16T14:11:47.864Z,36.32
2022-08-16T14:14:20.059Z,37.42
2022-08-16T14:16:55.061Z,36.30
2022-08-16T14:19:22.536Z,37.25
2022-08-16T14:21:56.615Z,37.65
2022-08-16T14:24:30.019Z,36.56
2022-08-16T14:26:57.860Z,36.63
2022-08-16T14:29:24.325Z,37.11
2022-08-16T14:31:59.266Z,37.41
2022-08-16T14:34:29.800Z,38.33
2022-08-16T14:36:57.369Z,38.03
2022-08-16T14:39:26.047Z,38.35
2022-08-16T14:41:53.678Z,38.32
2022-08-16T14:44:23.280Z,38.27
2022-08-16T14:46:49.936Z,38.12
2022-08-16T14:49:19.181Z,38.62
2022-08-16T14:51:46.406Z,38.64
2022-08-16T14:54:13.207Z,39.11
2022-08-16T14:56:43.326Z,38.55
2022-08-16T14:59:21.101Z,39.88
2022-08-16T15:01:59.728Z,40.93
2022-08-16T15:04:39.864Z,39.86
2022-08-16T15:07:12.464Z,38.72
2022-08-16T15:10:00.375Z,39.46
2022-08-16T15:12:31.138Z,39.94
2022-08-16T15:15:01.890Z,39.93
2022-08-16T15:17:34.089Z,41.12
2022-08-16T15:20:08.653Z,39.68
2022-08-16T15:22:42.975Z,39.84
2022-08-16T15:25:17.778Z,40.73
2022-08-16T15:30:47.883Z,41.02
2022-08-16T15:36:04.277Z,39.63
2022-08-16T15:39:01.960Z,39.22
2022-08-16T15:41:43.631Z,39.03
2022-08-16T15:44:14.265Z,38.75
2022-08-16T15:46:56.355Z,39.13
2022-08-16T15:49:37.296Z,40.31
2022-08-16T16:00:14.689Z,39.77
2022-08-16T16:03:11.618Z,39.49
2022-08-16T16:05:43.472Z,40.03
2022-08-16T16:16:02.902Z,42.27
2022-08-16T16:18:31.767Z,43.86
2022-08-16T16:21:02.082Z,43.74
2022-08-16T16:23:35.363Z,43.83
2022-08-16T16:31:40.557Z,44.57
2022-08-16T16:34:10.006Z,44.46
2022-08-16T16:36:39.951Z,44.65
2022-08-16T16:42:06.530Z,45.08
2022-08-16T16:52:56.990Z,45.33
2022-08-16T16:55:25.445Z,45.14
2022-08-16T16:58:17.992Z,45.50
2022-08-16T17:00:58.830Z,45.41
2022-08-16T17:03:26.504Z,45.49
2022-08-16T17:06:00.251Z,46.07
2022-08-16T17:08:29.660Z,45.87
2022-08-16T17:21:42.001Z,47.68
2022-08-16T17:53:41.515Z,50.10
2022-08-16T17:56:09.097Z,50.37
2022-08-16T17:58:36.378Z,50.54
2022-08-16T18:01:03.516Z,51.66
2022-08-16T18:11:57.093Z,52.10
2022-08-16T18:14:51.180Z,52.33
2022-08-16T18:25:48.980Z,53.56
2022-08-16T18:28:16.777Z,53.70
2022-08-16T18:36:19.971Z,54.79
2022-08-16T18:56:15.682Z,57.75
2022-08-16T18:58:42.263Z,57.66
2022-08-16T19:01:08.768Z,57.30
2022-08-16T19:03:35.382Z,58.18
2022-08-16T19:06:07.584Z,58.70
2022-08-16T19:08:38.537Z,59.33
2022-08-16T19:11:10.327Z,59.66
2022-08-16T19:13:40.300Z,59.71
2022-08-16T19:16:07.577Z,59.76
2022-08-16T19:18:36.530Z,60.08
2022-08-16T19:21:03.710Z,60.22
2022-08-16T19:23:35.726Z,60.34
2022-08-16T19:26:07.325Z,59.50
2022-08-16T19:28:51.092Z,60.47
2022-08-16T19:31:31.846Z,60.77
2022-08-16T19:33:59.204Z,60.95
2022-08-16T19:36:36.929Z,61.08
2022-08-16T19:39:08.809Z,61.54
2022-08-16T19:41:53.791Z,61.80
2022-08-16T19:52:23.787Z,62.81
2022-08-16T19:54:53.017Z,62.51
2022-08-16T19:57:20.346Z,63.17
2022-08-16T19:59:47.410Z,63.20
2022-08-16T20:02:25.597Z,63.30
2022-08-16T20:05:05.323Z,63.35
2022-08-16T20:07:32.287Z,63.91
2022-08-16T20:09:58.819Z,63.94
2022-08-16T20:12:25.648Z,64.22
2022-08-16T20:14:52.527Z,64.33
2022-08-16T20:17:19.552Z,64.99
2022-08-16T20:19:46.356Z,64.95
2022-08-16T20:22:42.052Z,64.40
2022-08-16T20:25:12.048Z,64.95
2022-08-16T20:27:39.989Z,65.54
2022-08-16T20:30:08.993Z,65.28
2022-08-16T20:32:36.351Z,65.40
2022-08-16T20:35:07.526Z,65.56
2022-08-16T20:37:37.195Z,65.64
2022-08-16T20:40:34.617Z,65.69
2022-08-16T20:43:12.745Z,65.78
2022-08-16T20:45:41.138Z,65.80
2022-08-16T20:48:07.768Z,65.94
2022-08-16T20:50:34.692Z,66.23
2022-08-16T20:53:01.837Z,66.31
2022-08-16T20:55:29.421Z,66.52
2022-08-16T20:57:56.153Z,66.18
2022-08-16T21:00:22.648Z,66.46
2022-08-16T21:02:53.415Z,66.79
2022-08-16T21:05:31.026Z,67.03
2022-08-16T21:07:57.956Z,67.16
2022-08-16T21:10:24.641Z,66.58
2022-08-16T21:12:56.180Z,67.09
2022-08-16T21:15:25.665Z,66.16
2022-08-16T21:17:52.308Z,66.29
2022-08-16T21:20:20.540Z,66.83
2022-08-16T21:22:59.081Z,66.17
2022-08-16T21:25:25.649Z,66.20
2022-08-16T21:28:41.101Z,66.51
2022-08-16T21:30:39.331Z,66.36
2022-08-16T21:33:15.764Z,66.58
2022-08-16T21:35:44.481Z,66.73
2022-08-16T21:38:28.728Z,66.74
2022-08-16T21:40:57.143Z,67.01
2022-08-16T21:43:27.647Z,66.98
2022-08-16T21:45:55.681Z,67.23
2022-08-16T21:48:35.227Z,67.29
2022-08-16T21:51:07.712Z,67.27
2022-08-16T21:53:35.273Z,67.54
2022-08-16T21:56:03.601Z,68.41
2022-08-16T21:58:31.164Z,68.29
2022-08-16T22:00:58.265Z,67.91
2022-08-16T22:03:26.441Z,68.15
2022-08-16T22:06:12.281Z,67.92
2022-08-16T22:08:48.855Z,68.82
2022-08-16T22:11:19.351Z,68.65
2022-08-16T22:13:57.368Z,68.91
2022-08-16T22:16:30.392Z,68.59
2022-08-16T22:18:56.878Z,68.31
2022-08-16T22:21:23.317Z,68.17
2022-08-16T22:23:57.133Z,68.55
2022-08-16T22:26:31.117Z,68.87
2022-08-16T22:29:04.373Z,69.28
2022-08-16T22:31:31.404Z,69.49
2022-08-16T22:33:57.908Z,69.33
2022-08-16T22:36:28.382Z,69.67
2022-08-16T22:38:59.823Z,69.83
2022-08-16T22:41:31.852Z,69.79
2022-08-16T22:43:59.754Z,70.01
2022-08-16T22:46:26.507Z,69.97
2022-08-16T22:48:52.945Z,69.81
2022-08-16T22:51:22.085Z,70.02
2022-08-16T22:53:48.891Z,69.82
2022-08-16T22:56:17.712Z,70.32
2022-08-16T22:58:45.402Z,70.28
2022-08-16T23:01:12.866Z,70.63
2022-08-16T23:03:40.907Z,70.84
2022-08-16T23:06:08.650Z,70.79
2022-08-16T23:08:40.593Z,70.89
2022-08-16T23:11:21.271Z,71.03
2022-08-16T23:13:54.507Z,70.57
2022-08-16T23:16:33.471Z,70.78
2022-08-16T23:19:19.124Z,70.89
2022-08-16T23:21:48.254Z,71.10
2022-08-16T23:24:17.519Z,71.00
2022-08-16T23:26:48.512Z,70.98
2022-08-16T23:29:24.335Z,70.78
2022-08-16T23:31:55.499Z,71.18
2022-08-16T23:34:22.244Z,71.11
2022-08-16T23:36:48.658Z,71.28
2022-08-16T23:39:15.087Z,70.96
2022-08-16T23:41:41.643Z,70.98
2022-08-16T23:44:56.368Z,70.95
2022-08-16T23:46:55.452Z,71.27
2022-08-16T23:49:58.037Z,71.55
2022-08-16T23:52:09.781Z,71.43
2022-08-16T23:54:36.767Z,71.30
2022-08-16T23:57:03.920Z,71.36
2022-08-16T23:59:30.422Z,71.62
